Time;durP1;ratioP1;P1;durP2;ratioP2;P2;SDS_P1;SDS_P2;PMS_P1;PMS_P2;Temp;Humidity;BMP_temperature;BMP_pressure;BME280_temperature;BME280_humidity;BME280_pressure;Samples;Min_cycle;Max_cycle;Signal;HPM_P1;HPM_P2
2022/01/01 00:01:49;;;;;;;56.70;20.70;;;;;;;;;;5013031;28;20362;-39
2022/01/01 00:04:16;;;;;;;52.20;21.98;;;;;;;;;;5012870;28;20037;-39
2022/01/01 00:06:42;;;;;;;59.83;21.45;;;;;;;;;;5013017;28;20022;-39
2022/01/01 00:09:08;;;;;;;65.80;20.77;;;;;;;;;;5006128;28;20030;-39
2022/01/01 00:11:34;;;;;;;63.75;19.98;;;;;;;;;;4992772;28;20038;-39
2022/01/01 00:14:00;;;;;;;53.35;21.27;;;;;;;;;;4992474;28;20027;-38
2022/01/01 00:16:26;;;;;;;53.97;21.60;;;;;;;;;;4992625;28;20026;-39
2022/01/01 00:18:52;;;;;;;48.13;20.30;;;;;;;;;;4993063;28;20486;-38
2022/01/01 00:21:18;;;;;;;59.65;22.13;;;;;;;;;;4992977;28;20021;-39
2022/01/01 00:23:44;;;;;;;58.92;26.85;;;;;;;;;;4989857;28;20018;-39
2022/01/01 00:26:10;;;;;;;57.60;26.05;;;;;;;;;;5010370;28;20026;-40
2022/01/01 00:28:36;;;;;;;71.28;26.00;;;;;;;;;;5009288;28;20516;-39
2022/01/01 00:31:02;;;;;;;75.18;24.95;;;;;;;;;;5011133;28;20512;-39
2022/01/01 00:33:29;;;;;;;56.92;21.35;;;;;;;;;;5012348;28;20030;-39
2022/01/01 00:35:56;;;;;;;52.88;20.08;;;;;;;;;;5012688;28;20029;-39
2022/01/01 00:38:22;;;;;;;58.13;19.02;;;;;;;;;;5003988;28;20054;-39
2022/01/01 00:40:48;;;;;;;51.25;20.63;;;;;;;;;;4995717;28;20419;-40
2022/01/01 00:43:14;;;;;;;50.80;18.25;;;;;;;;;;4996278;28;20022;-42
2022/01/01 00:45:40;;;;;;;46.20;18.60;;;;;;;;;;4996027;28;20022;-40
2022/01/01 00:48:06;;;;;;;47.30;20.00;;;;;;;;;;4996331;28;20546;-40
2022/01/01 00:50:32;;;;;;;44.75;17.77;;;;;;;;;;4995944;28;20023;-39
2022/01/01 00:52:59;;;;;;;65.18;21.05;;;;;;;;;;4996090;28;20026;-41
2022/01/01 00:55:25;;;;;;;44.22;17.73;;;;;;;;;;5006986;28;20030;-39
2022/01/01 00:57:51;;;;;;;59.10;19.17;;;;;;;;;;5015554;28;20513;-39
2022/01/01 01:00:17;;;;;;;41.58;17.23;;;;;;;;;;5015359;28;20085;-39
2022/01/01 01:02:43;;;;;;;44.45;17.55;;;;;;;;;;5016348;28;20442;-39
2022/01/01 01:05:09;;;;;;;48.20;19.23;;;;;;;;;;5019041;28;20033;-40
2022/01/01 01:07:35;;;;;;;55.25;17.58;;;;;;;;;;5015341;28;20037;-39
2022/01/01 01:10:02;;;;;;;46.45;17.17;;;;;;;;;;5014849;28;20392;-39
2022/01/01 01:12:37;;;;;;;53.00;17.83;;;;;;;;;;4995948;28;20034;-39
2022/01/01 01:15:04;;;;;;;44.28;16.90;;;;;;;;;;4996013;28;20026;-41
2022/01/01 01:17:30;;;;;;;53.90;17.55;;;;;;;;;;5002287;28;20022;-39
2022/01/01 01:19:56;;;;;;;50.47;17.60;;;;;;;;;;5015594;28;20061;-40
2022/01/01 01:22:22;;;;;;;57.05;18.48;;;;;;;;;;4998834;28;20050;-39
2022/01/01 01:24:48;;;;;;;55.55;18.20;;;;;;;;;;5015580;28;20061;-39
2022/01/01 01:27:14;;;;;;;49.90;18.50;;;;;;;;;;5010633;28;20117;-40
2022/01/01 01:29:43;;;;;;;59.85;21.10;;;;;;;;;;5014963;28;20105;-38
2022/01/01 01:32:09;;;;;;;54.33;20.58;;;;;;;;;;5022290;28;20032;-39
2022/01/01 01:34:35;;;;;;;53.10;19.83;;;;;;;;;;5024295;28;20034;-39
2022/01/01 01:37:01;;;;;;;49.50;19.67;;;;;;;;;;5023851;28;20034;-38
2022/01/01 01:39:27;;;;;;;53.33;20.42;;;;;;;;;;5021867;28;20078;-37
2022/01/01 01:41:53;;;;;;;55.88;20.70;;;;;;;;;;4998412;28;20023;-40
2022/01/01 01:44:32;;;;;;;59.50;23.15;;;;;;;;;;4994850;28;20077;-39
2022/01/01 01:47:00;;;;;;;56.85;20.90;;;;;;;;;;4994745;28;20025;-39
2022/01/01 01:49:26;;;;;;;55.25;19.73;;;;;;;;;;4977057;28;20153;-40
2022/01/01 01:51:53;;;;;;;52.25;21.50;;;;;;;;;;4994255;28;20023;-41
2022/01/01 01:54:19;;;;;;;65.05;22.13;;;;;;;;;;4996628;28;20065;-39
2022/01/01 01:56:45;;;;;;;56.38;23.25;;;;;;;;;;5013982;28;20021;-40
2022/01/01 01:59:12;;;;;;;81.28;22.05;;;;;;;;;;5005733;28;20404;-40
2022/01/01 02:01:38;;;;;;;59.08;21.02;;;;;;;;;;4993960;28;20026;-40
2022/01/01 02:04:04;;;;;;;51.17;21.25;;;;;;;;;;5001024;28;20026;-41
2022/01/01 02:06:30;;;;;;;60.40;24.45;;;;;;;;;;4999004;28;20026;-40
2022/01/01 02:08:56;;;;;;;54.30;23.08;;;;;;;;;;5013729;28;20073;-39
2022/01/01 02:11:23;;;;;;;63.42;24.45;;;;;;;;;;5001473;28;20030;-38
2022/01/01 02:18:52;;;;;;;63.85;23.10;;;;;;;;;;5013147;28;20078;-38
2022/01/01 02:21:20;;;;;;;61.90;21.95;;;;;;;;;;5010110;28;20062;-40
2022/01/01 02:23:46;;;;;;;58.05;21.60;;;;;;;;;;4994250;28;20022;-40
2022/01/01 02:26:15;;;;;;;56.22;22.73;;;;;;;;;;5006942;28;20025;-40
2022/01/01 02:28:42;;;;;;;65.60;23.73;;;;;;;;;;5009500;28;20026;-40
2022/01/01 02:31:08;;;;;;;67.68;23.73;;;;;;;;;;5013257;28;20129;-38
2022/01/01 02:33:34;;;;;;;66.03;23.17;;;;;;;;;;5000023;28;20026;-40
2022/01/01 02:36:00;;;;;;;55.38;21.25;;;;;;;;;;4996528;28;20034;-41
2022/01/01 02:38:26;;;;;;;74.78;23.45;;;;;;;;;;5013350;28;20030;-42
2022/01/01 02:40:52;;;;;;;60.00;23.35;;;;;;;;;;5000020;28;20123;-40
2022/01/01 02:43:18;;;;;;;60.78;23.73;;;;;;;;;;4993733;28;20374;-40
2022/01/01 02:45:44;;;;;;;59.72;23.52;;;;;;;;;;4994301;28;20096;-40
2022/01/01 02:48:12;;;;;;;52.80;22.35;;;;;;;;;;4994203;28;20085;-39
2022/01/01 02:50:39;;;;;;;73.65;24.35;;;;;;;;;;5011899;28;20030;-40
2022/01/01 02:53:11;;;;;;;64.82;25.75;;;;;;;;;;5009353;28;20481;-41
2022/01/01 02:55:37;;;;;;;52.20;21.73;;;;;;;;;;4994355;28;20041;-39
2022/01/01 02:58:04;;;;;;;61.13;22.88;;;;;;;;;;5003086;28;20034;-39
2022/01/01 03:00:30;;;;;;;63.20;23.23;;;;;;;;;;5007271;28;20100;-38
2022/01/01 03:02:56;;;;;;;60.00;21.92;;;;;;;;;;4991779;28;20097;-40
2022/01/01 03:05:22;;;;;;;65.15;24.88;;;;;;;;;;4993160;28;20462;-39
2022/01/01 03:07:48;;;;;;;55.97;23.15;;;;;;;;;;4995876;28;20076;-40
2022/01/01 03:10:14;;;;;;;68.43;21.77;;;;;;;;;;5012540;28;20069;-40
2022/01/01 03:12:40;;;;;;;69.25;22.60;;;;;;;;;;4998284;28;20109;-40
2022/01/01 03:15:06;;;;;;;56.08;20.80;;;;;;;;;;5001108;28;20030;-40
2022/01/01 03:17:32;;;;;;;56.25;22.73;;;;;;;;;;5011108;28;20090;-40
2022/01/01 03:19:58;;;;;;;47.40;20.45;;;;;;;;;;4990631;28;20049;-39
2022/01/01 03:22:24;;;;;;;63.65;21.98;;;;;;;;;;4996704;28;20026;-40
2022/01/01 03:24:50;;;;;;;55.15;20.48;;;;;;;;;;5012649;28;20022;-40
2022/01/01 03:27:16;;;;;;;55.53;19.63;;;;;;;;;;5002592;28;20053;-40
2022/01/01 03:29:42;;;;;;;51.50;20.33;;;;;;;;;;4993406;28;20057;-41
2022/01/01 03:32:08;;;;;;;55.00;21.50;;;;;;;;;;4992686;28;20034;-39
2022/01/01 03:34:34;;;;;;;59.42;19.30;;;;;;;;;;5000049;28;20409;-39
2022/01/01 03:37:01;;;;;;;55.35;21.02;;;;;;;;;;5008751;28;20104;-40
2022/01/01 03:39:27;;;;;;;54.47;21.42;;;;;;;;;;5000159;28;20026;-40
2022/01/01 03:41:53;;;;;;;65.60;21.27;;;;;;;;;;4993654;28;20045;-39
2022/01/01 03:44:19;;;;;;;52.88;20.77;;;;;;;;;;5012458;28;20477;-39
2022/01/01 03:46:45;;;;;;;55.20;20.30;;;;;;;;;;5005025;28;20049;-40
2022/01/01 03:49:11;;;;;;;55.22;20.67;;;;;;;;;;5010642;28;20030;-40
2022/01/01 03:51:37;;;;;;;54.80;19.80;;;;;;;;;;4992315;28;20081;-41
2022/01/01 03:54:03;;;;;;;46.50;20.45;;;;;;;;;;5000195;28;20421;-39
2022/01/01 03:56:29;;;;;;;56.22;19.70;;;;;;;;;;5011210;28;20084;-38
2022/01/01 03:58:55;;;;;;;55.22;20.38;;;;;;;;;;4992115;28;20077;-40
2022/01/01 04:01:21;;;;;;;63.38;20.80;;;;;;;;;;5002390;28;20460;-40
2022/01/01 04:03:47;;;;;;;63.30;21.15;;;;;;;;;;5011135;28;20022;-40
2022/01/01 04:06:13;;;;;;;61.40;20.33;;;;;;;;;;4992663;28;20394;-39
2022/01/01 04:08:39;;;;;;;52.75;21.20;;;;;;;;;;4991644;28;20105;-39
2022/01/01 04:11:05;;;;;;;50.90;20.20;;;;;;;;;;4991902;28;20046;-40
2022/01/01 04:13:31;;;;;;;60.55;20.98;;;;;;;;;;5011949;28;20037;-40
2022/01/01 04:15:57;;;;;;;49.25;20.17;;;;;;;;;;5008522;28;20060;-40
2022/01/01 04:18:37;;;;;;;52.10;20.45;;;;;;;;;;5011407;28;20030;-38
2022/01/01 04:21:03;;;;;;;61.28;21.55;;;;;;;;;;4972632;28;20037;-42
2022/01/01 04:23:29;;;;;;;55.10;21.05;;;;;;;;;;4984580;28;20019;-39
2022/01/01 04:25:55;;;;;;;61.15;21.77;;;;;;;;;;4992574;28;20382;-42
2022/01/01 04:28:21;;;;;;;55.20;19.20;;;;;;;;;;4992241;28;20323;-40
2022/01/01 04:30:47;;;;;;;52.55;20.60;;;;;;;;;;5007535;28;20026;-42
2022/01/01 04:33:13;;;;;;;61.45;23.50;;;;;;;;;;5004088;28;20026;-40
2022/01/01 04:35:39;;;;;;;53.88;21.23;;;;;;;;;;4996800;28;20038;-40
2022/01/01 04:38:11;;;;;;;66.68;20.85;;;;;;;;;;5010521;28;20049;-40
2022/01/01 04:40:37;;;;;;;67.38;22.63;;;;;;;;;;4997882;28;20299;-40
2022/01/01 04:43:03;;;;;;;60.90;22.73;;;;;;;;;;4994208;28;20045;-40
2022/01/01 04:45:29;;;;;;;52.90;23.80;;;;;;;;;;5011179;28;20045;-39
2022/01/01 04:47:55;;;;;;;59.08;23.33;;;;;;;;;;4998445;28;20046;-39
2022/01/01 04:50:21;;;;;;;61.88;22.55;;;;;;;;;;4993540;28;20038;-40
2022/01/01 04:52:47;;;;;;;52.75;22.85;;;;;;;;;;5011724;28;20034;-40
2022/01/01 04:55:13;;;;;;;74.72;23.95;;;;;;;;;;4998723;28;20081;-41
2022/01/01 04:57:39;;;;;;;60.58;22.17;;;;;;;;;;4991276;28;20049;-40
2022/01/01 05:00:07;;;;;;;63.45;24.40;;;;;;;;;;4991757;28;20418;-41
2022/01/01 05:02:32;;;;;;;61.22;24.05;;;;;;;;;;4992472;28;20058;-40
2022/01/01 05:04:58;;;;;;;65.13;23.25;;;;;;;;;;5011401;28;20049;-40
2022/01/01 05:07:24;;;;;;;61.00;23.77;;;;;;;;;;4999939;28;20034;-41
2022/01/01 05:09:50;;;;;;;70.20;23.30;;;;;;;;;;4995353;28;20045;-37
2022/01/01 05:12:16;;;;;;;68.45;23.25;;;;;;;;;;4997422;28;20038;-38
2022/01/01 05:14:42;;;;;;;60.92;22.42;;;;;;;;;;4999888;28;20076;-39
2022/01/01 05:17:09;;;;;;;61.33;23.98;;;;;;;;;;4992518;28;20068;-39
2022/01/01 05:19:35;;;;;;;72.72;22.80;;;;;;;;;;4990965;28;20022;-39
2022/01/01 05:22:01;;;;;;;67.90;22.35;;;;;;;;;;5001379;28;20077;-37
2022/01/01 05:24:27;;;;;;;66.20;23.30;;;;;;;;;;4995441;28;20034;-37
2022/01/01 05:26:53;;;;;;;55.67;21.83;;;;;;;;;;5009610;28;20531;-38
2022/01/01 05:29:19;;;;;;;60.30;23.60;;;;;;;;;;5004062;28;20030;-37
2022/01/01 05:31:45;;;;;;;62.55;24.23;;;;;;;;;;4994961;28;20061;-38
2022/01/01 05:34:11;;;;;;;67.93;22.77;;;;;;;;;;5014440;28;20539;-38
2022/01/01 05:36:37;;;;;;;77.43;24.13;;;;;;;;;;5004357;28;20070;-37
2022/01/01 05:39:03;;;;;;;52.53;20.90;;;;;;;;;;4994662;28;20038;-39
2022/01/01 05:41:29;;;;;;;57.95;19.85;;;;;;;;;;4995265;28;20058;-39
2022/01/01 05:43:55;;;;;;;54.92;21.17;;;;;;;;;;4993931;28;20058;-39
2022/01/01 05:46:21;;;;;;;59.00;21.52;;;;;;;;;;4994553;28;20028;-44
2022/01/01 05:48:47;;;;;;;66.00;20.38;;;;;;;;;;4995362;28;20023;-38
2022/01/01 05:51:13;;;;;;;51.42;19.77;;;;;;;;;;5003441;28;20049;-37
2022/01/01 05:53:39;;;;;;;54.20;19.65;;;;;;;;;;5014357;28;20022;-38
2022/01/01 05:56:05;;;;;;;54.67;19.77;;;;;;;;;;5004377;28;20054;-38
2022/01/01 05:58:32;;;;;;;47.45;18.88;;;;;;;;;;5004770;28;20026;-38
2022/01/01 06:00:58;;;;;;;54.33;21.38;;;;;;;;;;4994402;28;20022;-36
2022/01/01 06:03:24;;;;;;;53.72;20.48;;;;;;;;;;5013180;28;20022;-37
2022/01/01 06:05:52;;;;;;;55.47;19.15;;;;;;;;;;5004938;28;20033;-37
2022/01/01 06:08:18;;;;;;;54.85;17.40;;;;;;;;;;4994905;28;20109;-37
2022/01/01 06:10:44;;;;;;;49.08;19.52;;;;;;;;;;4994705;28;20470;-37
2022/01/01 06:13:10;;;;;;;62.13;19.63;;;;;;;;;;5001827;28;20052;-37
2022/01/01 06:15:36;;;;;;;52.25;19.25;;;;;;;;;;5009025;28;20377;-38
2022/01/01 06:18:03;;;;;;;53.38;20.58;;;;;;;;;;5010532;28;20374;-37
2022/01/01 06:20:29;;;;;;;49.38;17.45;;;;;;;;;;5004612;28;20066;-37
2022/01/01 06:22:55;;;;;;;57.10;18.23;;;;;;;;;;4993984;28;20023;-38
2022/01/01 06:25:21;;;;;;;49.15;17.33;;;;;;;;;;5011864;28;20057;-39
2022/01/01 06:27:46;;;;;;;57.42;16.85;;;;;;;;;;5012169;28;20123;-38
2022/01/01 06:30:13;;;;;;;55.25;17.90;;;;;;;;;;4997154;28;20055;-37
2022/01/01 06:32:39;;;;;;;57.60;18.90;;;;;;;;;;4974963;28;20073;-37
2022/01/01 06:35:05;;;;;;;56.58;17.92;;;;;;;;;;4984848;28;20030;-37
2022/01/01 06:37:31;;;;;;;51.55;17.27;;;;;;;;;;4993698;28;20615;-37
2022/01/01 06:39:57;;;;;;;56.60;17.55;;;;;;;;;;5008690;28;20127;-37
2022/01/01 06:42:23;;;;;;;50.95;20.77;;;;;;;;;;5003274;28;20030;-37
2022/01/01 06:44:49;;;;;;;53.85;18.52;;;;;;;;;;4993823;28;20497;-39
2022/01/01 06:47:15;;;;;;;53.42;19.65;;;;;;;;;;4994048;28;20030;-37
2022/01/01 06:49:41;;;;;;;51.33;18.30;;;;;;;;;;5002180;28;20026;-39
2022/01/01 06:52:07;;;;;;;61.50;19.10;;;;;;;;;;5012979;28;20022;-37
2022/01/01 06:54:33;;;;;;;63.33;20.15;;;;;;;;;;4993771;28;20078;-37
2022/01/01 06:56:59;;;;;;;60.97;18.52;;;;;;;;;;5001809;28;20413;-37
2022/01/01 06:59:25;;;;;;;64.93;22.13;;;;;;;;;;5012950;28;20029;-37
2022/01/01 07:01:52;;;;;;;66.85;19.55;;;;;;;;;;5008428;28;20049;-38
2022/01/01 07:04:18;;;;;;;57.03;20.58;;;;;;;;;;5005373;28;20019;-37
2022/01/01 07:06:44;;;;;;;64.18;21.92;;;;;;;;;;5013028;28;20030;-37
2022/01/01 07:09:11;;;;;;;62.78;21.67;;;;;;;;;;4993036;28;20030;-36
2022/01/01 07:11:37;;;;;;;69.28;23.98;;;;;;;;;;5000539;28;20088;-38
2022/01/01 07:14:03;;;;;;;64.50;22.75;;;;;;;;;;5013061;28;20030;-37
2022/01/01 07:16:29;;;;;;;69.75;23.55;;;;;;;;;;5007339;28;20062;-37
2022/01/01 07:18:55;;;;;;;74.85;23.40;;;;;;;;;;5011541;28;20030;-41
2022/01/01 07:21:21;;;;;;;69.72;23.33;;;;;;;;;;5012855;28;20036;-37
2022/01/01 07:23:47;;;;;;;57.80;23.98;;;;;;;;;;4994253;28;20374;-37
2022/01/01 07:26:13;;;;;;;81.45;22.83;;;;;;;;;;5002289;28;20023;-37
2022/01/01 07:28:39;;;;;;;67.43;24.02;;;;;;;;;;5011148;28;20037;-37
2022/01/01 07:31:05;;;;;;;73.90;23.20;;;;;;;;;;5005376;28;20034;-38
2022/01/01 07:33:31;;;;;;;76.15;23.85;;;;;;;;;;4992956;28;20031;-39
2022/01/01 07:35:57;;;;;;;77.00;26.67;;;;;;;;;;4994148;28;20022;-37
2022/01/01 07:38:23;;;;;;;78.53;24.85;;;;;;;;;;4992371;28;20026;-38
2022/01/01 07:40:50;;;;;;;80.45;26.08;;;;;;;;;;4992223;28;20023;-38
2022/01/01 07:43:17;;;;;;;82.95;29.90;;;;;;;;;;4991885;28;20628;-38
2022/01/01 07:45:44;;;;;;;85.35;28.77;;;;;;;;;;4992308;28;20052;-38
2022/01/01 07:48:11;;;;;;;83.38;28.40;;;;;;;;;;4992683;28;20401;-37
2022/01/01 07:50:38;;;;;;;88.32;28.42;;;;;;;;;;4993408;28;20049;-38
2022/01/01 07:53:05;;;;;;;88.50;32.35;;;;;;;;;;4995873;28;20033;-37
2022/01/01 07:55:31;;;;;;;93.78;33.70;;;;;;;;;;5003964;28;20473;-38
2022/01/01 07:57:57;;;;;;;93.78;33.33;;;;;;;;;;5012046;28;20034;-38
2022/01/01 08:00:23;;;;;;;99.22;35.15;;;;;;;;;;5011906;28;20025;-39
2022/01/01 08:02:49;;;;;;;97.93;36.00;;;;;;;;;;5011940;28;20020;-39
2022/01/01 08:05:16;;;;;;;101.13;36.88;;;;;;;;;;5011837;28;20649;-38
2022/01/01 08:07:43;;;;;;;107.43;37.75;;;;;;;;;;4995581;28;20034;-38
2022/01/01 08:10:09;;;;;;;105.10;38.13;;;;;;;;;;4993292;28;20042;-37
2022/01/01 08:12:36;;;;;;;115.95;37.67;;;;;;;;;;5000503;28;20033;-37
2022/01/01 08:15:02;;;;;;;105.93;36.72;;;;;;;;;;5002402;28;20034;-39
2022/01/01 08:17:28;;;;;;;96.82;37.10;;;;;;;;;;4992341;28;20042;-38
2022/01/01 08:19:54;;;;;;;106.88;39.92;;;;;;;;;;4995065;28;20030;-38
2022/01/01 08:22:20;;;;;;;112.07;43.00;;;;;;;;;;4990938;28;20461;-37
2022/01/01 08:24:46;;;;;;;120.53;44.58;;;;;;;;;;4994986;28;20034;-38
2022/01/01 08:27:12;;;;;;;106.60;42.65;;;;;;;;;;5005054;28;20025;-39
2022/01/01 08:29:38;;;;;;;127.30;46.95;;;;;;;;;;4990972;28;20031;-36
2022/01/01 08:32:05;;;;;;;118.90;44.85;;;;;;;;;;4991820;28;20470;-39
2022/01/01 08:34:31;;;;;;;127.18;49.40;;;;;;;;;;4992291;28;20057;-38
2022/01/01 08:36:57;;;;;;;120.43;47.85;;;;;;;;;;4993597;28;20023;-39
2022/01/01 08:39:23;;;;;;;110.15;45.95;;;;;;;;;;5009395;28;20040;-38
2022/01/01 08:41:49;;;;;;;129.85;48.00;;;;;;;;;;5005325;28;20078;-38
2022/01/01 08:44:15;;;;;;;125.32;49.00;;;;;;;;;;5004824;28;20310;-41
2022/01/01 08:46:41;;;;;;;130.40;48.75;;;;;;;;;;5002363;28;20030;-39
2022/01/01 08:49:07;;;;;;;128.75;50.03;;;;;;;;;;4999352;28;20431;-37
2022/01/01 08:51:34;;;;;;;117.65;46.35;;;;;;;;;;4993734;28;20058;-37
2022/01/01 08:54:00;;;;;;;135.07;49.80;;;;;;;;;;4995515;28;20105;-39
2022/01/01 08:56:27;;;;;;;117.90;47.40;;;;;;;;;;4993920;28;20034;-37
2022/01/01 08:58:53;;;;;;;123.75;46.33;;;;;;;;;;4991401;28;20046;-38
2022/01/01 09:01:19;;;;;;;141.60;49.58;;;;;;;;;;4992709;28;20098;-38
2022/01/01 09:03:45;;;;;;;135.35;46.40;;;;;;;;;;4995491;28;20114;-40
2022/01/01 09:06:11;;;;;;;121.30;48.05;;;;;;;;;;5001573;28;20057;-36
2022/01/01 09:08:39;;;;;;;115.38;44.22;;;;;;;;;;5009855;28;20025;-38
2022/01/01 09:11:05;;;;;;;118.15;43.53;;;;;;;;;;5003017;28;20031;-38
2022/01/01 09:13:31;;;;;;;117.90;42.45;;;;;;;;;;4994211;28;20030;-38
2022/01/01 09:15:58;;;;;;;112.95;46.22;;;;;;;;;;4994046;28;20620;-39
2022/01/01 09:18:24;;;;;;;110.75;42.42;;;;;;;;;;4993954;28;20033;-40
2022/01/01 09:20:50;;;;;;;106.38;42.60;;;;;;;;;;4993964;28;20026;-38
2022/01/01 09:23:16;;;;;;;115.28;43.95;;;;;;;;;;4997536;28;20027;-36
2022/01/01 09:25:42;;;;;;;122.50;44.78;;;;;;;;;;4996008;28;20038;-41
2022/01/01 09:28:08;;;;;;;119.78;46.40;;;;;;;;;;4995781;28;20027;-40
2022/01/01 09:30:34;;;;;;;122.03;43.58;;;;;;;;;;5007366;28;20414;-37
2022/01/01 09:33:00;;;;;;;119.78;44.03;;;;;;;;;;5001103;28;20120;-37
2022/01/01 09:35:26;;;;;;;109.13;47.20;;;;;;;;;;4998578;28;20061;-40
2022/01/01 09:37:53;;;;;;;114.93;47.45;;;;;;;;;;5000719;28;20062;-39
2022/01/01 09:40:19;;;;;;;132.80;49.85;;;;;;;;;;4994441;28;20026;-39
2022/01/01 09:42:46;;;;;;;111.32;47.17;;;;;;;;;;4994612;28;20486;-39
2022/01/01 09:45:13;;;;;;;112.72;47.83;;;;;;;;;;4993732;28;20023;-39
2022/01/01 09:47:39;;;;;;;126.90;45.88;;;;;;;;;;5002657;28;20034;-39
2022/01/01 09:50:05;;;;;;;112.15;46.08;;;;;;;;;;4999591;28;20026;-38
2022/01/01 09:52:32;;;;;;;119.28;46.75;;;;;;;;;;5000102;28;20021;-39
2022/01/01 09:54:58;;;;;;;103.65;46.50;;;;;;;;;;4998900;28;20161;-41
2022/01/01 09:57:24;;;;;;;101.75;44.83;;;;;;;;;;4992476;28;20101;-38
2022/01/01 09:59:51;;;;;;;111.50;45.15;;;;;;;;;;5008698;28;20462;-39
2022/01/01 10:02:17;;;;;;;120.07;46.70;;;;;;;;;;5012642;28;20049;-38
2022/01/01 10:04:45;;;;;;;108.20;43.72;;;;;;;;;;4994993;28;20031;-39
2022/01/01 10:07:11;;;;;;;95.70;42.15;;;;;;;;;;4990916;28;20026;-40
2022/01/01 10:09:38;;;;;;;91.07;40.28;;;;;;;;;;4991064;28;20041;-38
2022/01/01 10:12:09;;;;;;;106.60;42.88;;;;;;;;;;4989918;28;20613;-38
2022/01/01 10:14:43;;;;;;;97.32;38.95;;;;;;;;;;4961951;28;20184;-38
2022/01/01 10:17:18;;;;;;;93.70;41.13;;;;;;;;;;4992433;28;20080;-38
2022/01/01 10:19:45;;;;;;;93.55;42.88;;;;;;;;;;4992155;28;20027;-38
2022/01/01 10:22:14;;;;;;;93.47;39.28;;;;;;;;;;4992206;28;20022;-39
2022/01/01 10:27:47;;;;;;;109.97;41.30;;;;;;;;;;5012904;28;20123;-39
2022/01/01 10:30:20;;;;;;;95.10;38.97;;;;;;;;;;5008147;28;20023;-39
2022/01/01 10:33:19;;;;;;;84.75;37.95;;;;;;;;;;4993948;28;20077;-39
2022/01/01 10:35:46;;;;;;;91.63;38.90;;;;;;;;;;4972712;28;20449;-37
2022/01/01 10:38:16;;;;;;;89.60;38.45;;;;;;;;;;4993997;28;20026;-38
2022/01/01 10:40:43;;;;;;;87.10;37.72;;;;;;;;;;4990744;28;20033;-38
2022/01/01 10:43:10;;;;;;;89.93;37.50;;;;;;;;;;4993590;28;20023;-38
2022/01/01 10:45:36;;;;;;;92.60;39.05;;;;;;;;;;4993511;28;20018;-37
2022/01/01 10:50:46;;;;;;;78.47;36.97;;;;;;;;;;4993544;28;20046;-37
2022/01/01 10:53:16;;;;;;;84.80;36.17;;;;;;;;;;4993743;28;20054;-38
2022/01/01 10:55:43;;;;;;;84.18;37.38;;;;;;;;;;4993523;28;20034;-38
2022/01/01 10:58:09;;;;;;;90.03;36.70;;;;;;;;;;5004643;28;20030;-36
2022/01/01 11:00:43;;;;;;;91.93;37.38;;;;;;;;;;4993533;28;20540;-36
2022/01/01 11:03:09;;;;;;;92.47;37.30;;;;;;;;;;4994444;28;20088;-39
2022/01/01 11:05:36;;;;;;;68.82;33.47;;;;;;;;;;4978179;28;20032;-38
2022/01/01 11:08:04;;;;;;;69.07;33.67;;;;;;;;;;4991764;28;20462;-37
2022/01/01 11:10:30;;;;;;;74.15;33.85;;;;;;;;;;4991374;28;20138;-37
2022/01/01 11:12:57;;;;;;;64.22;32.88;;;;;;;;;;4987704;28;20026;-38
2022/01/01 11:15:23;;;;;;;63.00;31.23;;;;;;;;;;4991991;28;20026;-38
2022/01/01 11:17:49;;;;;;;68.22;29.40;;;;;;;;;;4992665;28;20030;-38
2022/01/01 11:20:16;;;;;;;60.97;30.52;;;;;;;;;;4993302;28;20069;-38
2022/01/01 11:22:43;;;;;;;65.65;30.52;;;;;;;;;;4997638;28;20069;-38
2022/01/01 11:25:09;;;;;;;58.83;31.02;;;;;;;;;;4995306;28;20030;-38
2022/01/01 11:27:36;;;;;;;68.68;31.38;;;;;;;;;;4995782;28;20046;-37
2022/01/01 11:30:06;;;;;;;64.22;30.95;;;;;;;;;;4992565;28;20029;-38
2022/01/01 11:32:48;;;;;;;74.60;33.72;;;;;;;;;;4975628;28;20490;-38
2022/01/01 11:35:20;;;;;;;70.85;30.55;;;;;;;;;;4997033;28;20026;-39
2022/01/01 11:38:05;;;;;;;68.38;31.27;;;;;;;;;;4997687;28;20061;-39
2022/01/01 11:40:40;;;;;;;64.47;27.02;;;;;;;;;;4995505;28;20097;-37
2022/01/01 11:43:07;;;;;;;65.47;29.73;;;;;;;;;;4993965;28;20030;-37
2022/01/01 11:45:44;;;;;;;56.72;29.05;;;;;;;;;;4998262;28;20098;-38
2022/01/01 11:48:30;;;;;;;74.70;31.27;;;;;;;;;;4992746;28;20049;-39
2022/01/01 11:50:56;;;;;;;60.65;31.23;;;;;;;;;;4991817;28;20038;-38
2022/01/01 11:53:29;;;;;;;65.38;28.83;;;;;;;;;;4974431;28;20030;-38
2022/01/01 11:56:10;;;;;;;62.30;28.33;;;;;;;;;;4998239;28;20105;-39
2022/01/01 11:58:49;;;;;;;65.53;29.13;;;;;;;;;;4987874;28;20061;-38
2022/01/01 12:01:24;;;;;;;68.53;28.90;;;;;;;;;;4989989;28;20064;-37
2022/01/01 12:03:51;;;;;;;56.17;27.45;;;;;;;;;;5006788;28;20040;-38
2022/01/01 12:06:18;;;;;;;59.65;28.70;;;;;;;;;;5004527;28;20024;-37
2022/01/01 12:08:46;;;;;;;68.10;27.50;;;;;;;;;;4992303;28;20030;-39
2022/01/01 12:11:31;;;;;;;51.50;26.83;;;;;;;;;;4992237;28;20109;-39
2022/01/01 12:13:58;;;;;;;77.57;28.00;;;;;;;;;;4991813;28;20037;-38
2022/01/01 12:16:24;;;;;;;67.47;28.17;;;;;;;;;;4993744;28;20049;-37
2022/01/01 12:18:59;;;;;;;57.88;27.25;;;;;;;;;;4994229;28;20026;-37
2022/01/01 12:21:27;;;;;;;56.20;25.13;;;;;;;;;;4993100;28;20037;-36
2022/01/01 12:23:57;;;;;;;61.63;27.80;;;;;;;;;;4996283;28;20026;-38
2022/01/01 12:26:31;;;;;;;57.70;26.33;;;;;;;;;;4995701;28;20026;-38
2022/01/01 12:29:01;;;;;;;53.90;26.65;;;;;;;;;;4995730;28;20038;-38
2022/01/01 12:31:29;;;;;;;54.42;25.70;;;;;;;;;;4996561;28;20022;-38
2022/01/01 12:33:59;;;;;;;58.72;26.35;;;;;;;;;;4997018;28;20529;-38
2022/01/01 12:36:27;;;;;;;53.63;26.88;;;;;;;;;;5001557;28;20045;-37
2022/01/01 12:38:54;;;;;;;57.92;23.77;;;;;;;;;;5009650;28;20362;-38
2022/01/01 12:41:21;;;;;;;56.47;24.48;;;;;;;;;;4997642;28;20023;-39
2022/01/01 12:43:47;;;;;;;55.67;27.27;;;;;;;;;;4991908;28;20105;-38
2022/01/01 12:46:13;;;;;;;52.90;25.45;;;;;;;;;;4991820;28;20150;-38
2022/01/01 12:48:40;;;;;;;61.33;28.25;;;;;;;;;;4989627;28;20559;-36
2022/01/01 12:51:07;;;;;;;47.22;24.48;;;;;;;;;;4995647;28;20030;-38
2022/01/01 12:53:37;;;;;;;57.42;24.92;;;;;;;;;;5005171;28;20022;-37
2022/01/01 12:56:04;;;;;;;66.50;29.33;;;;;;;;;;5011975;28;20030;-37
2022/01/01 12:58:32;;;;;;;72.22;32.60;;;;;;;;;;4998641;28;20026;-38
2022/01/01 13:01:06;;;;;;;65.13;32.33;;;;;;;;;;4994633;28;20033;-37
2022/01/01 13:03:33;;;;;;;70.72;27.38;;;;;;;;;;5005790;28;20076;-38
2022/01/01 13:05:59;;;;;;;51.08;24.60;;;;;;;;;;5011460;28;20752;-38
2022/01/01 13:08:25;;;;;;;56.67;25.80;;;;;;;;;;4990551;28;20043;-39
2022/01/01 13:10:51;;;;;;;52.80;23.02;;;;;;;;;;4992194;28;20065;-39
2022/01/01 13:13:23;;;;;;;51.95;22.73;;;;;;;;;;4992036;28;20096;-36
2022/01/01 13:15:50;;;;;;;49.20;23.40;;;;;;;;;;4994114;28;20145;-38
2022/01/01 13:18:16;;;;;;;55.15;22.88;;;;;;;;;;5000461;28;20032;-37
2022/01/01 13:20:43;;;;;;;48.03;22.70;;;;;;;;;;5009181;28;20101;-38
2022/01/01 13:23:09;;;;;;;49.95;22.33;;;;;;;;;;5010892;28;20026;-38
2022/01/01 13:25:35;;;;;;;50.65;24.60;;;;;;;;;;5013238;28;20030;-38
2022/01/01 13:28:02;;;;;;;48.45;24.35;;;;;;;;;;4995345;28;20049;-39
2022/01/01 13:30:29;;;;;;;66.32;23.92;;;;;;;;;;4975443;28;20023;-37
2022/01/01 13:32:55;;;;;;;54.83;24.48;;;;;;;;;;4999987;28;20088;-37
2022/01/01 13:35:27;;;;;;;59.03;24.40;;;;;;;;;;5002247;28;20022;-39
2022/01/01 13:37:54;;;;;;;59.55;22.65;;;;;;;;;;5009733;28;20117;-38
2022/01/01 13:40:21;;;;;;;51.20;22.38;;;;;;;;;;5003862;28;20475;-39
2022/01/01 13:42:48;;;;;;;50.47;22.85;;;;;;;;;;4995890;28;20080;-37
2022/01/01 13:45:14;;;;;;;54.30;23.40;;;;;;;;;;5008094;28;20054;-38
2022/01/01 13:47:40;;;;;;;55.97;23.50;;;;;;;;;;4996410;28;20030;-38
2022/01/01 13:50:17;;;;;;;51.40;23.23;;;;;;;;;;4996799;28;20597;-38
2022/01/01 13:52:51;;;;;;;56.63;24.40;;;;;;;;;;4997339;28;20030;-35
2022/01/01 13:55:22;;;;;;;62.27;23.70;;;;;;;;;;4999478;28;20037;-37
2022/01/01 13:57:51;;;;;;;62.55;25.17;;;;;;;;;;4981869;28;20073;-37
2022/01/01 14:00:18;;;;;;;44.80;22.92;;;;;;;;;;5002188;28;20026;-38
2022/01/01 14:02:44;;;;;;;61.92;23.88;;;;;;;;;;4981342;28;20027;-37
2022/01/01 14:05:10;;;;;;;53.22;23.33;;;;;;;;;;4997114;28;20026;-38
2022/01/01 14:07:36;;;;;;;58.10;24.67;;;;;;;;;;4996004;28;20082;-37
2022/01/01 14:10:05;;;;;;;50.28;23.88;;;;;;;;;;4995635;28;20030;-38
2022/01/01 14:12:35;;;;;;;55.08;24.60;;;;;;;;;;4995399;28;20019;-38
2022/01/01 14:15:02;;;;;;;59.60;25.70;;;;;;;;;;4994875;28;20109;-38
2022/01/01 14:17:28;;;;;;;48.83;23.58;;;;;;;;;;5000055;28;20017;-38
2022/01/01 14:19:54;;;;;;;52.10;23.00;;;;;;;;;;5004772;28;20516;-38
2022/01/01 14:22:28;;;;;;;45.55;23.83;;;;;;;;;;4993194;28;20026;-38
2022/01/01 14:24:55;;;;;;;53.88;25.65;;;;;;;;;;4997172;28;20054;-37
2022/01/01 14:27:21;;;;;;;61.05;29.08;;;;;;;;;;4993977;28;20018;-40